createdAt,value
2019-02-06T00:00:01.510Z,85.00
2019-02-06T00:01:01.499Z,84.75
2019-02-06T00:02:01.489Z,84.69
2019-02-06T00:03:01.477Z,84.90
2019-02-06T00:04:01.466Z,85.00
2019-02-06T00:05:01.461Z,85.11
2019-02-06T00:06:01.447Z,85.63
2019-02-06T00:07:01.438Z,85.31
2019-02-06T00:08:01.426Z,85.11
2019-02-06T00:09:01.417Z,84.69
2019-02-06T00:10:01.403Z,84.69
2019-02-06T00:11:01.394Z,84.55
2019-02-06T00:12:01.384Z,84.75
2019-02-06T00:13:01.374Z,83.75
2019-02-06T00:14:01.405Z,83.75
2019-02-06T00:15:01.379Z,83.96
2019-02-06T00:16:01.347Z,84.06
2019-02-06T00:17:01.333Z,84.03
2019-02-06T00:18:01.322Z,84.03
2019-02-06T00:19:01.310Z,83.61
2019-02-06T00:20:01.301Z,83.65
2019-02-06T00:21:01.288Z,83.51
2019-02-06T00:22:01.279Z,83.51
2019-02-06T00:23:01.270Z,83.82
2019-02-06T00:24:01.258Z,83.61
2019-02-06T00:25:01.245Z,83.61
2019-02-06T00:26:01.235Z,83.65
2019-02-06T00:27:01.224Z,83.54
2019-02-06T00:28:01.213Z,83.40
2019-02-06T00:29:01.203Z,83.65
2019-02-06T00:30:01.194Z,83.96
2019-02-06T00:31:01.182Z,83.44
2019-02-06T00:32:01.175Z,83.51
2019-02-06T00:33:01.168Z,83.75
2019-02-06T00:34:01.149Z,83.61
2019-02-06T00:35:01.140Z,83.54
2019-02-06T00:36:01.128Z,83.61
2019-02-06T00:37:01.119Z,83.96
2019-02-06T00:38:01.110Z,83.72
2019-02-06T00:39:01.096Z,83.75
2019-02-06T00:40:01.089Z,83.96
2019-02-06T00:41:01.078Z,83.30
2019-02-06T00:42:01.065Z,83.03
2019-02-06T00:43:01.054Z,83.09
2019-02-06T00:44:01.043Z,83.09
2019-02-06T00:45:01.060Z,82.99
2019-02-06T00:46:01.024Z,82.89
2019-02-06T00:47:01.012Z,82.57
2019-02-06T00:48:01.001Z,82.57
2019-02-06T00:49:00.990Z,82.46
2019-02-06T00:50:00.982Z,82.26
2019-02-06T00:51:00.969Z,82.46
2019-02-06T00:52:00.960Z,82.36
2019-02-06T00:53:00.948Z,82.15
2019-02-06T00:54:00.949Z,82.26
2019-02-06T00:55:00.940Z,82.05
2019-02-06T00:56:00.927Z,81.95
2019-02-06T00:57:00.909Z,82.15
2019-02-06T00:58:00.896Z,82.36
2019-02-06T00:59:00.884Z,81.74
2019-02-06T01:00:00.888Z,82.26
2019-02-06T01:01:00.864Z,82.46
2019-02-06T01:02:00.853Z,82.26
2019-02-06T01:03:00.848Z,81.74
2019-02-06T01:04:00.834Z,81.84
2019-02-06T01:05:00.821Z,82.26
2019-02-06T01:06:00.812Z,81.95
2019-02-06T01:07:00.802Z,82.36
2019-02-06T01:08:00.790Z,82.36
2019-02-06T01:09:00.781Z,82.57
2019-02-06T01:10:00.808Z,82.57
2019-02-06T01:11:00.762Z,82.57
2019-02-06T01:12:00.747Z,82.57
2019-02-06T01:13:00.739Z,82.36
2019-02-06T01:14:00.727Z,82.40
2019-02-06T01:15:00.715Z,82.68
2019-02-06T01:16:00.705Z,82.99
2019-02-06T01:17:00.695Z,82.36
2019-02-06T01:18:00.687Z,81.95
2019-02-06T01:19:00.675Z,82.05
2019-02-06T01:20:00.664Z,81.84
2019-02-06T01:21:00.655Z,81.53
2019-02-06T01:22:00.644Z,82.05
2019-02-06T01:23:00.635Z,82.05
2019-02-06T01:24:00.624Z,82.05
2019-02-06T01:25:00.610Z,82.15
2019-02-06T01:26:00.600Z,82.05
2019-02-06T01:27:00.591Z,82.36
2019-02-06T01:28:00.577Z,82.05
2019-02-06T01:29:00.568Z,82.05
2019-02-06T01:30:00.573Z,82.15
2019-02-06T01:31:00.546Z,82.26
2019-02-06T01:32:00.541Z,82.26
2019-02-06T01:33:00.525Z,82.05
2019-02-06T01:34:00.514Z,82.05
2019-02-06T01:35:00.504Z,82.05
2019-02-06T01:36:00.497Z,82.15
2019-02-06T01:37:00.484Z,82.05
2019-02-06T01:38:00.473Z,82.36
2019-02-06T01:39:00.462Z,82.51
2019-02-06T01:40:00.452Z,82.09
2019-02-06T01:41:00.451Z,82.40
2019-02-06T01:42:00.429Z,82.05
2019-02-06T01:43:00.420Z,81.95
2019-02-06T01:44:00.409Z,81.98
2019-02-06T01:45:00.539Z,82.26
2019-02-06T01:46:00.387Z,81.88
2019-02-06T01:47:00.376Z,82.09
2019-02-06T01:48:00.368Z,82.09
2019-02-06T01:49:00.358Z,82.15
2019-02-06T01:50:00.353Z,81.98
2019-02-06T01:51:00.337Z,82.20
2019-02-06T01:52:00.386Z,81.57
2019-02-06T01:53:00.313Z,81.32
2019-02-06T01:54:00.303Z,81.63
2019-02-06T01:55:00.296Z,81.84
2019-02-06T01:56:00.286Z,81.63
2019-02-06T01:57:00.271Z,81.22
2019-02-06T01:58:00.261Z,81.32
2019-02-06T01:59:00.252Z,80.91
2019-02-06T02:00:00.242Z,81.32
2019-02-06T02:01:00.230Z,81.22
2019-02-06T02:02:00.218Z,80.80
2019-02-06T02:03:00.207Z,80.18
2019-02-06T02:04:00.197Z,80.80
2019-02-06T02:05:00.346Z,80.60
2019-02-06T02:06:02.443Z,80.08
2019-02-06T02:07:00.165Z,81.01
2019-02-06T02:08:00.155Z,80.49
2019-02-06T02:09:00.144Z,80.49
2019-02-06T02:10:00.193Z,80.18
2019-02-06T02:11:00.128Z,80.49
2019-02-06T02:12:00.114Z,79.76
2019-02-06T02:13:00.103Z,79.87
2019-02-06T02:14:00.090Z,80.08
2019-02-06T02:15:00.145Z,80.18
2019-02-06T02:16:00.070Z,80.49
2019-02-06T02:17:00.061Z,80.18
2019-02-06T02:18:00.049Z,80.18
2019-02-06T02:19:00.038Z,80.08
2019-02-06T02:20:00.028Z,80.29
2019-02-06T02:21:00.018Z,80.49
2019-02-06T02:22:00.009Z,80.08
2019-02-06T02:22:59.996Z,79.97
2019-02-06T02:23:59.987Z,79.76
2019-02-06T02:24:59.975Z,80.18
2019-02-06T02:25:59.964Z,79.97
2019-02-06T02:26:59.954Z,80.49
2019-02-06T02:27:59.944Z,80.11
2019-02-06T02:28:59.933Z,80.94
2019-02-06T02:29:59.922Z,80.11
2019-02-06T02:30:59.926Z,80.84
2019-02-06T02:31:59.903Z,80.74
2019-02-06T02:32:59.894Z,80.84
2019-02-06T02:33:59.879Z,80.84
2019-02-06T02:34:59.869Z,81.05
2019-02-06T02:35:59.861Z,80.94
2019-02-06T02:36:59.848Z,81.36
2019-02-06T02:37:59.844Z,80.94
2019-02-06T02:38:59.826Z,80.84
2019-02-06T02:39:59.818Z,80.84
2019-02-06T02:40:59.831Z,80.53
2019-02-06T02:41:59.795Z,80.32
2019-02-06T02:42:59.784Z,80.94
2019-02-06T02:43:59.775Z,81.26
2019-02-06T02:44:59.764Z,80.94
2019-02-06T02:45:59.752Z,80.74
2019-02-06T02:46:59.751Z,80.84
2019-02-06T02:47:59.732Z,80.22
2019-02-06T02:48:59.721Z,80.74
2019-02-06T02:49:59.713Z,81.05
2019-02-06T02:50:59.700Z,80.74
2019-02-06T02:51:59.689Z,81.05
2019-02-06T02:52:59.686Z,80.84
2019-02-06T02:53:59.673Z,80.94
2019-02-06T02:54:59.663Z,80.43
2019-02-06T02:55:59.648Z,80.84
2019-02-06T02:56:59.652Z,80.53
2019-02-06T02:57:59.630Z,80.22
2019-02-06T02:58:59.618Z,80.94
2019-02-06T02:59:59.631Z,80.11
2019-02-06T03:00:59.597Z,80.05
2019-02-06T03:01:59.583Z,80.01
2019-02-06T03:02:59.577Z,80.36
2019-02-06T03:03:59.563Z,80.32
2019-02-06T03:04:59.552Z,79.80
2019-02-06T03:05:59.541Z,80.22
2019-02-06T03:06:59.532Z,80.22
2019-02-06T03:07:59.519Z,79.28
2019-02-06T03:08:59.508Z,79.38
2019-02-06T03:09:59.502Z,79.28
2019-02-06T03:10:59.490Z,79.00
2019-02-06T03:11:59.485Z,79.17
2019-02-06T03:12:59.467Z,79.07
2019-02-06T03:13:59.466Z,78.86
2019-02-06T03:14:59.447Z,78.66
2019-02-06T03:15:59.436Z,78.76
2019-02-06T03:17:03.049Z,77.83
2019-02-06T03:17:59.414Z,77.51
2019-02-06T03:18:59.409Z,77.83
2019-02-06T03:19:59.392Z,77.93
2019-02-06T03:20:59.383Z,78.24
2019-02-06T03:21:59.374Z,77.83
2019-02-06T03:22:59.362Z,77.93
2019-02-06T03:23:59.355Z,78.97
2019-02-06T03:24:59.340Z,78.55
2019-02-06T03:25:59.329Z,78.24
2019-02-06T03:26:59.321Z,78.34
2019-02-06T03:27:59.309Z,78.34
2019-02-06T03:28:59.297Z,78.14
2019-02-06T03:29:59.287Z,78.66
2019-02-06T03:30:59.277Z,78.24
2019-02-06T03:31:59.278Z,78.03
2019-02-06T03:32:59.263Z,78.86
2019-02-06T03:33:59.246Z,78.55
2019-02-06T03:34:59.240Z,78.55
2019-02-06T03:35:59.225Z,78.66
2019-02-06T03:36:59.214Z,78.76
2019-02-06T03:37:59.202Z,78.66
2019-02-06T03:38:59.192Z,78.76
2019-02-06T03:39:59.182Z,78.14
2019-02-06T03:40:59.170Z,78.66
2019-02-06T03:41:59.161Z,79.07
2019-02-06T03:42:59.149Z,78.86
2019-02-06T03:43:59.138Z,79.49
2019-02-06T03:44:59.129Z,79.07
2019-02-06T03:45:59.117Z,78.97
2019-02-06T03:46:59.107Z,79.28
2019-02-06T03:47:59.097Z,79.07
2019-02-06T03:48:59.086Z,78.97
2019-02-06T03:49:59.077Z,79.07
2019-02-06T03:50:59.064Z,78.83
2019-02-06T03:51:59.055Z,78.83
2019-02-06T03:52:59.043Z,79.07
2019-02-06T03:53:59.033Z,79.80
2019-02-06T03:54:59.025Z,79.17
2019-02-06T03:55:59.013Z,80.43
2019-02-06T03:56:59.001Z,79.91
2019-02-06T03:57:58.993Z,80.22
2019-02-06T03:58:58.980Z,80.22
2019-02-06T03:59:58.971Z,80.84
2019-02-06T04:00:58.961Z,80.63
2019-02-06T04:01:58.954Z,81.67
2019-02-06T04:02:58.940Z,81.88
2019-02-06T04:03:58.926Z,82.51
2019-02-06T04:04:58.918Z,82.51
2019-02-06T04:05:58.906Z,82.51
2019-02-06T04:07:00.969Z,82.30
2019-02-06T04:07:58.886Z,82.51
2019-02-06T04:08:58.875Z,82.92
2019-02-06T04:09:58.865Z,82.92
2019-02-06T04:10:58.855Z,82.96
2019-02-06T04:11:58.841Z,83.03
2019-02-06T04:12:58.832Z,82.96
2019-02-06T04:13:58.824Z,83.17
2019-02-06T04:14:58.814Z,83.80
2019-02-06T04:15:58.799Z,83.80
2019-02-06T04:16:58.788Z,83.37
2019-02-06T04:17:58.778Z,83.58
2019-02-06T04:18:58.768Z,83.80
2019-02-06T04:19:58.759Z,83.80
2019-02-06T04:20:58.748Z,83.80
2019-02-06T04:21:58.738Z,83.48
2019-02-06T04:22:58.727Z,83.69
2019-02-06T04:23:58.716Z,83.80
2019-02-06T04:24:58.706Z,83.58
2019-02-06T04:25:58.696Z,84.04
2019-02-06T04:26:58.686Z,83.83
2019-02-06T04:27:58.675Z,84.04
2019-02-06T04:28:58.665Z,84.25
2019-02-06T04:29:58.652Z,84.45
2019-02-06T04:30:58.641Z,84.66
2019-02-06T04:31:58.632Z,85.19
2019-02-06T04:32:58.621Z,84.66
2019-02-06T04:33:58.611Z,84.39
2019-02-06T04:34:58.599Z,85.12
2019-02-06T04:35:58.589Z,85.12
2019-02-06T04:37:06.681Z,85.64
2019-02-06T04:37:59.568Z,85.43
2019-02-06T04:38:58.565Z,86.37
2019-02-06T04:39:58.582Z,86.72
2019-02-06T04:40:58.536Z,86.93
2019-02-06T04:41:58.530Z,86.93
2019-02-06T04:42:58.681Z,88.18
2019-02-06T04:43:58.503Z,88.18
2019-02-06T04:44:58.495Z,88.29
2019-02-06T04:45:58.483Z,88.29
2019-02-06T04:46:58.472Z,88.18
2019-02-06T04:47:58.462Z,88.95
2019-02-06T04:48:58.451Z,88.91
2019-02-06T04:49:58.440Z,89.26
2019-02-06T04:50:58.432Z,89.16
2019-02-06T04:51:58.421Z,89.16
2019-02-06T04:52:58.411Z,88.95
2019-02-06T04:53:58.400Z,89.16
2019-02-06T04:54:58.390Z,89.37
2019-02-06T04:55:58.377Z,89.41
2019-02-06T04:56:58.367Z,90.35
2019-02-06T04:57:58.356Z,90.66
2019-02-06T04:58:58.346Z,90.56
2019-02-06T04:59:58.345Z,90.87
2019-02-06T05:00:58.334Z,90.56
2019-02-06T05:01:58.315Z,91.50
2019-02-06T05:02:58.303Z,90.87
2019-02-06T05:03:58.293Z,90.45
2019-02-06T05:04:58.282Z,91.33
2019-02-06T05:05:58.275Z,91.64
2019-02-06T05:06:58.261Z,92.06
2019-02-06T05:07:58.250Z,91.69
2019-02-06T05:08:58.243Z,92.47
2019-02-06T05:09:58.231Z,92.27
2019-02-06T05:10:58.222Z,92.10
2019-02-06T05:11:58.207Z,92.37
2019-02-06T05:12:58.322Z,92.79
2019-02-06T05:13:58.188Z,93.04
2019-02-06T05:14:58.176Z,92.94
2019-02-06T05:15:58.167Z,92.46
2019-02-06T05:16:58.266Z,93.19
2019-02-06T05:17:58.145Z,93.19
2019-02-06T05:18:58.137Z,92.88
2019-02-06T05:19:58.132Z,92.88
2019-02-06T05:20:58.113Z,93.19
2019-02-06T05:21:58.104Z,93.23
2019-02-06T05:22:58.097Z,93.65
2019-02-06T05:23:58.083Z,93.96
2019-02-06T05:24:58.073Z,94.17
2019-02-06T05:25:58.061Z,94.38
2019-02-06T05:26:58.050Z,94.53
2019-02-06T05:27:58.044Z,94.84
2019-02-06T05:28:58.031Z,94.95
2019-02-06T05:29:58.018Z,94.95
2019-02-06T05:30:58.009Z,95.41
2019-02-06T05:31:58.019Z,95.62
2019-02-06T05:32:57.987Z,95.83
2019-02-06T05:33:57.977Z,96.25
2019-02-06T05:34:57.973Z,96.45
2019-02-06T05:35:57.967Z,96.35
2019-02-06T05:36:57.947Z,96.61
2019-02-06T05:37:57.934Z,97.08
2019-02-06T05:38:57.926Z,97.08
2019-02-06T05:39:57.916Z,96.88
2019-02-06T05:40:57.904Z,98.18
2019-02-06T05:41:57.893Z,97.75
2019-02-06T05:42:57.883Z,97.55
2019-02-06T05:43:57.873Z,97.55
2019-02-06T05:44:57.862Z,98.38
2019-02-06T05:45:57.851Z,98.38
2019-02-06T05:46:57.841Z,97.96
2019-02-06T05:47:57.831Z,98.55
2019-02-06T05:48:57.820Z,98.55
2019-02-06T05:49:57.810Z,98.65
2019-02-06T05:50:57.799Z,98.69
2019-02-06T05:51:57.788Z,97.96
2019-02-06T05:52:57.779Z,98.59
2019-02-06T05:53:57.768Z,98.86
2019-02-06T05:54:57.757Z,98.55
2019-02-06T05:55:57.751Z,98.86
2019-02-06T05:56:57.737Z,98.86
2019-02-06T05:57:57.739Z,98.75
2019-02-06T05:58:57.715Z,98.75
2019-02-06T05:59:57.704Z,98.86
2019-02-06T06:00:57.693Z,99.44
2019-02-06T06:01:57.684Z,98.92
2019-02-06T06:02:57.673Z,98.61
2019-02-06T06:03:57.666Z,98.61
2019-02-06T06:04:57.651Z,98.61
2019-02-06T06:05:57.641Z,98.65
2019-02-06T06:06:57.632Z,98.71
2019-02-06T06:07:57.621Z,98.08
2019-02-06T06:08:57.611Z,97.94
2019-02-06T06:09:57.608Z,98.04
2019-02-06T06:10:57.588Z,98.19
2019-02-06T06:11:57.580Z,97.56
2019-02-06T06:12:57.571Z,97.72
2019-02-06T06:13:57.557Z,97.67
2019-02-06T06:14:57.547Z,97.56
2019-02-06T06:15:57.537Z,97.35
2019-02-06T06:16:57.528Z,97.45
2019-02-06T06:17:57.516Z,97.67
2019-02-06T06:18:57.507Z,97.45
2019-02-06T06:19:57.496Z,97.56
2019-02-06T06:20:57.484Z,97.50
2019-02-06T06:21:57.475Z,97.56
2019-02-06T06:22:57.463Z,97.88
2019-02-06T06:23:57.454Z,97.88
2019-02-06T06:24:57.441Z,97.77
2019-02-06T06:25:57.431Z,97.88
2019-02-06T06:26:57.424Z,97.56
2019-02-06T06:27:57.411Z,97.71
2019-02-06T06:28:57.401Z,97.25
2019-02-06T06:29:57.390Z,97.88
2019-02-06T06:30:57.379Z,97.61
2019-02-06T06:31:57.369Z,97.92
2019-02-06T06:32:57.358Z,97.81
2019-02-06T06:33:57.347Z,97.92
2019-02-06T06:34:57.336Z,97.81
2019-02-06T06:35:57.327Z,97.92
2019-02-06T06:36:57.342Z,97.29
2019-02-06T06:38:01.087Z,97.75
2019-02-06T06:38:58.295Z,98.24
2019-02-06T06:39:57.286Z,98.13
2019-02-06T06:40:57.274Z,97.71
2019-02-06T06:41:57.263Z,98.13
2019-02-06T06:42:57.254Z,98.24
2019-02-06T06:43:57.242Z,98.28
2019-02-06T06:44:57.232Z,98.38
2019-02-06T06:45:57.221Z,98.86
2019-02-06T06:46:57.212Z,98.80
2019-02-06T06:47:57.200Z,98.38
2019-02-06T06:48:57.189Z,98.75
2019-02-06T06:49:57.180Z,98.69
2019-02-06T06:50:57.171Z,99.43
2019-02-06T06:51:57.158Z,99.11
2019-02-06T06:52:57.152Z,99.07
2019-02-06T06:53:57.138Z,99.07
2019-02-06T06:54:57.126Z,99.01
2019-02-06T06:55:57.117Z,99.01
2019-02-06T06:56:57.105Z,99.11
2019-02-06T06:57:57.094Z,98.28
2019-02-06T06:58:57.085Z,98.80
2019-02-06T06:59:57.074Z,98.65
2019-02-06T07:00:57.067Z,98.65
2019-02-06T07:01:57.052Z,98.80
2019-02-06T07:02:57.075Z,98.49
2019-02-06T07:03:57.033Z,98.28
2019-02-06T07:04:57.027Z,98.80
2019-02-06T07:05:57.011Z,99.01
2019-02-06T07:06:57.000Z,98.44
2019-02-06T07:08:08.858Z,99.11
2019-02-06T07:08:57.981Z,97.96
2019-02-06T07:09:56.972Z,98.07
2019-02-06T07:10:57.051Z,98.91
2019-02-06T07:11:56.948Z,98.86
2019-02-06T07:12:56.938Z,98.86
2019-02-06T07:13:56.927Z,98.75
2019-02-06T07:14:56.919Z,98.55
2019-02-06T07:15:56.906Z,98.13
2019-02-06T07:16:56.895Z,98.39
2019-02-06T07:17:56.890Z,97.45
2019-02-06T07:18:56.878Z,98.19
2019-02-06T07:19:56.867Z,97.62
2019-02-06T07:20:56.856Z,97.62
2019-02-06T07:21:56.843Z,97.41
2019-02-06T07:22:56.836Z,96.01
2019-02-06T07:23:56.823Z,96.17
2019-02-06T07:24:56.811Z,95.44
2019-02-06T07:25:56.800Z,94.78
2019-02-06T07:26:56.790Z,94.46
2019-02-06T07:27:56.782Z,93.84
2019-02-06T07:28:56.772Z,93.00
2019-02-06T07:29:56.760Z,92.79
2019-02-06T07:30:56.747Z,92.96
2019-02-06T07:31:56.738Z,92.02
2019-02-06T07:32:56.728Z,92.12
2019-02-06T07:33:56.715Z,92.44
2019-02-06T07:34:56.712Z,91.29
2019-02-06T07:35:56.711Z,91.25
2019-02-06T07:36:56.685Z,90.52
2019-02-06T07:37:56.713Z,91.25
2019-02-06T07:38:56.665Z,90.83
2019-02-06T07:39:56.657Z,90.00
2019-02-06T07:40:56.643Z,90.20
2019-02-06T07:41:56.634Z,90.31
2019-02-06T07:42:56.621Z,90.20
2019-02-06T07:43:56.610Z,90.31
2019-02-06T07:44:56.601Z,90.52
2019-02-06T07:45:56.589Z,90.41
2019-02-06T07:46:56.579Z,90.00
2019-02-06T07:47:56.569Z,89.95
2019-02-06T07:48:56.558Z,89.47
2019-02-06T07:49:56.550Z,88.95
2019-02-06T07:50:56.537Z,89.06
2019-02-06T07:51:56.529Z,89.06
2019-02-06T07:52:56.515Z,89.47
2019-02-06T07:53:56.505Z,89.75
2019-02-06T07:54:56.501Z,89.26
2019-02-06T07:55:56.485Z,89.26
2019-02-06T07:56:56.474Z,88.53
2019-02-06T07:57:56.463Z,88.53
2019-02-06T07:58:56.452Z,88.81
2019-02-06T07:59:56.442Z,88.70
2019-02-06T08:00:56.431Z,88.39
2019-02-06T08:01:56.421Z,88.39
2019-02-06T08:02:56.410Z,87.93
2019-02-06T08:03:56.399Z,87.16
2019-02-06T08:04:56.393Z,86.25
2019-02-06T08:05:56.377Z,85.17
2019-02-06T08:06:56.368Z,82.81
2019-02-06T08:07:56.368Z,81.25
2019-02-06T08:08:56.347Z,81.21
2019-02-06T08:09:56.335Z,79.97
2019-02-06T08:10:56.326Z,78.86
2019-02-06T08:11:56.314Z,77.89
2019-02-06T08:12:56.307Z,77.64
2019-02-06T08:13:56.297Z,77.02
2019-02-06T08:14:56.281Z,76.36
2019-02-06T08:15:56.271Z,75.74
2019-02-06T08:16:56.260Z,75.78
2019-02-06T08:17:56.250Z,75.40
2019-02-06T08:18:56.245Z,75.02
2019-02-06T08:19:56.231Z,75.36
2019-02-06T08:20:56.222Z,76.54
2019-02-06T08:21:56.209Z,76.95
2019-02-06T08:22:56.196Z,77.06
2019-02-06T08:23:56.187Z,77.40
2019-02-06T08:24:56.175Z,77.37
2019-02-06T08:25:56.165Z,76.95
2019-02-06T08:26:56.154Z,76.95
2019-02-06T08:27:56.143Z,77.68
2019-02-06T08:28:56.135Z,77.30
2019-02-06T08:29:56.125Z,77.20
2019-02-06T08:30:56.112Z,77.47
2019-02-06T08:31:56.101Z,75.71
2019-02-06T08:32:56.090Z,75.78
2019-02-06T08:33:56.080Z,75.36
2019-02-06T08:34:56.069Z,75.36
2019-02-06T08:35:56.058Z,75.60
2019-02-06T08:36:56.047Z,74.74
2019-02-06T08:37:56.037Z,75.12
2019-02-06T08:38:56.026Z,74.53
2019-02-06T08:39:56.102Z,75.67
2019-02-06T08:40:56.008Z,75.78
2019-02-06T08:41:55.997Z,76.26
2019-02-06T08:42:55.984Z,76.75
2019-02-06T08:43:55.990Z,77.06
2019-02-06T08:44:55.961Z,76.95
2019-02-06T08:45:55.951Z,76.99
2019-02-06T08:46:55.941Z,77.12
2019-02-06T08:47:55.935Z,77.16
2019-02-06T08:48:55.919Z,75.36
2019-02-06T08:49:55.910Z,75.92
2019-02-06T08:50:55.898Z,75.71
2019-02-06T08:51:55.896Z,75.40
2019-02-06T08:52:55.877Z,75.64
2019-02-06T08:53:55.865Z,76.23
2019-02-06T08:54:55.854Z,76.02
2019-02-06T08:55:55.846Z,75.67
2019-02-06T08:56:55.836Z,75.26
2019-02-06T08:57:55.823Z,75.60
2019-02-06T08:58:55.815Z,76.92
2019-02-06T08:59:55.802Z,77.85
2019-02-06T09:00:55.791Z,77.44
2019-02-06T09:01:55.780Z,74.50
2019-02-06T09:02:55.770Z,73.94
2019-02-06T09:03:55.760Z,73.19
2019-02-06T09:04:56.226Z,73.08
2019-02-06T09:05:55.737Z,71.63
2019-02-06T09:06:55.728Z,72.50
2019-02-06T09:07:55.720Z,72.64
2019-02-06T09:08:59.845Z,71.05
2019-02-06T09:09:55.698Z,70.29
2019-02-06T09:10:55.691Z,68.43
2019-02-06T09:11:55.673Z,69.12
2019-02-06T09:12:55.663Z,67.41
2019-02-06T09:13:55.652Z,65.55
2019-02-06T09:14:55.641Z,66.24
2019-02-06T09:15:55.632Z,64.84
2019-02-06T09:16:55.621Z,64.09
2019-02-06T09:17:55.610Z,63.17
2019-02-06T09:18:55.601Z,63.37
2019-02-06T09:19:55.587Z,63.50
2019-02-06T09:20:55.578Z,63.92
2019-02-06T09:21:55.566Z,63.40
2019-02-06T09:22:55.645Z,64.43
2019-02-06T09:23:55.543Z,64.28
2019-02-06T09:24:55.536Z,65.48
2019-02-06T09:25:57.461Z,66.27
2019-02-06T09:26:55.513Z,65.70
2019-02-06T09:27:55.503Z,63.74
2019-02-06T09:28:55.492Z,65.49
2019-02-06T09:29:55.480Z,63.71
2019-02-06T09:30:55.469Z,63.10
2019-02-06T09:31:55.459Z,61.07
2019-02-06T09:32:55.450Z,63.34
2019-02-06T09:33:55.439Z,61.66
2019-02-06T09:34:55.427Z,60.84
2019-02-06T09:35:55.419Z,61.96
2019-02-06T09:36:55.405Z,63.60
2019-02-06T09:37:55.396Z,64.12
2019-02-06T09:38:55.384Z,62.79
2019-02-06T09:39:55.373Z,61.02
2019-02-06T09:40:55.362Z,60.50
2019-02-06T09:41:55.354Z,59.75
2019-02-06T09:42:55.341Z,60.47
2019-02-06T09:43:55.331Z,60.84
2019-02-06T09:44:55.320Z,61.05
2019-02-06T09:45:57.137Z,61.49
2019-02-06T09:46:55.299Z,62.10
2019-02-06T09:47:55.286Z,61.85
2019-02-06T09:48:55.281Z,62.88
2019-02-06T09:49:55.266Z,63.74
2019-02-06T09:50:55.258Z,63.97
2019-02-06T09:51:55.245Z,64.87
2019-02-06T09:52:55.234Z,65.17
2019-02-06T09:53:55.223Z,67.27
2019-02-06T09:54:55.213Z,67.37
2019-02-06T09:55:55.201Z,67.30
2019-02-06T09:56:55.191Z,66.72
2019-02-06T09:57:55.180Z,67.68
2019-02-06T09:58:55.171Z,68.02
2019-02-06T09:59:55.158Z,68.36
2019-02-06T10:00:55.148Z,69.50
2019-02-06T10:01:55.136Z,69.81
2019-02-06T10:02:55.125Z,70.43
2019-02-06T10:03:55.115Z,69.81
2019-02-06T10:04:55.108Z,69.37
2019-02-06T10:05:55.094Z,68.95
2019-02-06T10:06:55.084Z,67.91
2019-02-06T10:07:55.073Z,69.16
2019-02-06T10:08:55.064Z,69.09
2019-02-06T10:09:57.882Z,69.71
2019-02-06T10:10:55.042Z,70.47
2019-02-06T10:11:55.034Z,70.98
2019-02-06T10:12:55.024Z,70.05
2019-02-06T10:13:55.010Z,70.26
2019-02-06T10:14:54.998Z,69.92
2019-02-06T10:15:54.987Z,69.37
2019-02-06T10:16:54.977Z,67.54
2019-02-06T10:17:54.968Z,67.30
2019-02-06T10:18:54.958Z,66.01
2019-02-06T10:19:54.947Z,64.02
2019-02-06T10:20:54.935Z,63.84
2019-02-06T10:21:54.924Z,64.90
2019-02-06T10:22:54.914Z,65.76
2019-02-06T10:23:54.904Z,65.62
2019-02-06T10:24:54.893Z,65.83
2019-02-06T10:25:54.992Z,66.00
2019-02-06T10:26:54.873Z,67.30
2019-02-06T10:27:54.866Z,68.02
2019-02-06T10:28:54.848Z,67.82
2019-02-06T10:29:54.839Z,68.12
2019-02-06T10:30:54.830Z,67.91
2019-02-06T10:31:54.818Z,67.34
2019-02-06T10:32:54.807Z,66.07
2019-02-06T10:33:54.797Z,65.49
2019-02-06T10:34:54.784Z,63.43
2019-02-06T10:35:54.775Z,63.71
2019-02-06T10:36:54.767Z,63.40
2019-02-06T10:37:54.752Z,63.89
2019-02-06T10:38:54.742Z,62.31
2019-02-06T10:39:54.730Z,60.89
2019-02-06T10:40:54.719Z,59.83
2019-02-06T10:41:54.711Z,60.06
2019-02-06T10:42:54.698Z,59.65
2019-02-06T10:43:54.688Z,60.03
2019-02-06T10:44:54.677Z,60.50
2019-02-06T10:45:54.667Z,60.50
2019-02-06T10:46:54.659Z,60.53
2019-02-06T10:47:54.646Z,61.02
2019-02-06T10:48:54.633Z,59.52
2019-02-06T10:49:54.623Z,57.75
2019-02-06T10:50:54.616Z,58.54
2019-02-06T10:51:54.602Z,55.87
2019-02-06T10:52:54.593Z,54.72
2019-02-06T10:53:54.582Z,53.72
2019-02-06T10:54:54.572Z,54.18
2019-02-06T10:55:54.569Z,52.64
2019-02-06T10:56:54.548Z,53.23
2019-02-06T10:57:54.537Z,52.51
2019-02-06T10:58:54.526Z,52.62
2019-02-06T10:59:54.516Z,53.61
2019-02-06T11:00:54.506Z,53.49
2019-02-06T11:01:54.495Z,54.23
2019-02-06T11:02:54.485Z,54.59
2019-02-06T11:03:54.472Z,54.57
2019-02-06T11:04:54.466Z,54.13
2019-02-06T11:05:54.453Z,53.51
2019-02-06T11:06:54.440Z,53.90
2019-02-06T11:07:54.429Z,54.02
2019-02-06T11:08:54.436Z,54.72
2019-02-06T11:09:54.409Z,54.31
2019-02-06T11:10:54.398Z,51.90
2019-02-06T11:11:54.387Z,52.23
2019-02-06T11:12:54.375Z,53.21
2019-02-06T11:13:54.366Z,52.83
2019-02-06T11:14:54.354Z,53.67
2019-02-06T11:15:54.343Z,53.95
2019-02-06T11:16:54.334Z,51.62
2019-02-06T11:17:54.322Z,53.85
2019-02-06T11:18:54.311Z,53.80
2019-02-06T11:19:54.299Z,53.46
2019-02-06T11:20:54.289Z,52.97
2019-02-06T11:21:54.279Z,52.36
2019-02-06T11:22:54.267Z,52.72
2019-02-06T11:23:54.256Z,51.47
2019-02-06T11:24:54.247Z,51.88
2019-02-06T11:25:54.234Z,51.72
2019-02-06T11:26:54.229Z,53.54
2019-02-06T11:27:54.212Z,55.82
2019-02-06T11:28:54.202Z,57.80
2019-02-06T11:29:54.191Z,58.31
2019-02-06T11:30:57.007Z,58.21
2019-02-06T11:31:54.170Z,58.08
2019-02-06T11:32:54.159Z,57.70
2019-02-06T11:33:54.148Z,58.93
2019-02-06T11:34:54.138Z,59.34
2019-02-06T11:35:54.125Z,58.78
2019-02-06T11:36:54.132Z,59.78
2019-02-06T11:37:54.108Z,58.70
2019-02-06T11:38:54.094Z,56.26
2019-02-06T11:39:58.039Z,54.36
2019-02-06T11:40:54.073Z,53.69
2019-02-06T11:41:54.063Z,51.70
2019-02-06T11:42:54.051Z,53.90
2019-02-06T11:43:54.045Z,53.16
2019-02-06T11:44:54.030Z,51.78
2019-02-06T11:45:54.019Z,51.62
2019-02-06T11:46:54.009Z,54.36
2019-02-06T11:47:53.995Z,54.59
2019-02-06T11:48:53.987Z,54.28
2019-02-06T11:49:53.976Z,55.77
2019-02-06T11:50:53.967Z,56.38
2019-02-06T11:51:53.953Z,55.95
2019-02-06T11:52:53.943Z,55.30
2019-02-06T11:53:53.936Z,54.87
2019-02-06T11:54:53.921Z,53.28
2019-02-06T11:55:53.910Z,53.82
2019-02-06T11:56:53.900Z,53.95
2019-02-06T11:57:53.890Z,54.79
2019-02-06T11:58:53.880Z,54.61
2019-02-06T11:59:53.874Z,54.95
2019-02-06T12:00:53.856Z,54.61
2019-02-06T12:01:53.849Z,54.13
2019-02-06T12:02:53.836Z,52.64
2019-02-06T12:03:53.826Z,52.42
2019-02-06T12:04:53.813Z,52.05
2019-02-06T12:05:53.802Z,53.41
2019-02-06T12:06:53.792Z,53.10
2019-02-06T12:07:53.785Z,53.33
2019-02-06T12:08:53.771Z,55.46
2019-02-06T12:09:53.760Z,55.18
2019-02-06T12:10:53.749Z,54.02
2019-02-06T12:11:53.741Z,53.74
2019-02-06T12:12:53.729Z,54.69
2019-02-06T12:13:53.719Z,54.66
2019-02-06T12:14:53.706Z,53.92
2019-02-06T12:15:53.697Z,52.97
2019-02-06T12:16:53.687Z,53.61
2019-02-06T12:17:53.676Z,53.51
2019-02-06T12:18:53.663Z,54.33
2019-02-06T12:19:53.655Z,54.77
2019-02-06T12:20:53.643Z,54.38
2019-02-06T12:21:53.632Z,54.59
2019-02-06T12:22:53.621Z,54.74
2019-02-06T12:23:53.610Z,53.51
2019-02-06T12:24:53.599Z,53.72
2019-02-06T12:25:53.589Z,54.23
2019-02-06T12:26:53.578Z,53.51
2019-02-06T12:27:53.567Z,53.00
2019-02-06T12:28:53.563Z,53.95
2019-02-06T12:29:53.546Z,53.97
2019-02-06T12:30:56.140Z,55.66
2019-02-06T12:31:53.525Z,56.18
2019-02-06T12:32:53.513Z,56.49
2019-02-06T12:33:53.503Z,56.31
2019-02-06T12:34:53.493Z,56.72
2019-02-06T12:35:53.481Z,56.64
2019-02-06T12:36:53.471Z,56.85
2019-02-06T12:37:53.461Z,57.98
2019-02-06T12:38:54.006Z,57.16
2019-02-06T12:39:53.437Z,56.67
2019-02-06T12:40:53.434Z,58.14
2019-02-06T12:41:53.428Z,59.27
2019-02-06T12:42:53.409Z,57.90
2019-02-06T12:43:53.395Z,58.42
2019-02-06T12:44:53.385Z,58.21
2019-02-06T12:45:53.374Z,58.14
2019-02-06T12:46:53.372Z,58.34
2019-02-06T12:47:53.458Z,57.88
2019-02-06T12:48:53.342Z,58.16
2019-02-06T12:49:53.331Z,56.21
2019-02-06T12:50:53.320Z,56.72
2019-02-06T12:51:53.313Z,57.13